TimeEDT,TemperatureF,Dew PointF,Humidity,Sea Level PressureIn,VisibilityMPH,Wind Direction,Wind SpeedMPH,Gust SpeedMPH,PrecipitationIn,Events,Conditions,WindDirDegrees,DateUTC
12:15 AM,71.6,71.6,100,29.72,5.0,SSW,12.7,-,0.01,,Mostly Cloudy,200,2014-03-18 04:15:00
12:35 AM,71.6,71.6,100,29.72,4.0,South,10.4,-,0.01,,Mostly Cloudy,190,2014-03-18 04:35:00
12:55 AM,71.6,71.6,100,29.71,3.0,SSW,12.7,-,0.01,,Mostly Cloudy,200,2014-03-18 04:55:00
1:15 AM,71.6,71.6,100,29.71,4.0,SSW,16.1,19.6,N/A,,Mostly Cloudy,200,2014-03-18 05:15:00
1:35 AM,71.6,71.6,100,29.71,4.0,SSW,16.1,23.0,N/A,,Mostly Cloudy,200,2014-03-18 05:35:00
1:55 AM,71.6,71.6,100,29.71,5.0,SSW,20.7,24.2,N/A,,Overcast,210,2014-03-18 05:55:00
2:15 AM,71.6,71.6,100,29.71,5.0,SW,19.6,25.3,N/A,,Mostly Cloudy,220,2014-03-18 06:15:00
2:35 AM,68.0,68.0,100,29.74,2.0,West,18.4,32.2,0.03,,Overcast,270,2014-03-18 06:35:00
2:55 AM,68.0,66.2,94,29.74,2.5,West,16.1,-,0.09,,Mostly Cloudy,270,2014-03-18 06:55:00
3:15 AM,68.0,66.2,94,29.74,5.0,West,13.8,-,0.01,,Overcast,280,2014-03-18 07:15:00
3:35 AM,68.0,66.2,94,29.75,5.0,West,13.8,-,0.06,,Mostly Cloudy,280,2014-03-18 07:35:00
3:55 AM,68.0,66.2,94,29.74,5.0,West,10.4,-,0.08,,Mostly Cloudy,280,2014-03-18 07:55:00
4:15 AM,68.0,66.2,94,29.74,7.0,West,10.4,-,N/A,,Mostly Cloudy,260,2014-03-18 08:15:00
4:35 AM,66.2,64.4,94,29.76,7.0,NW,25.3,36.8,0.01,,Mostly Cloudy,310,2014-03-18 08:35:00
4:55 AM,66.2,62.6,88,29.78,7.0,NW,23.0,35.7,0.01,,Mostly Cloudy,310,2014-03-18 08:55:00
5:15 AM,66.2,62.6,88,29.78,9.0,NW,20.7,31.1,N/A,,Mostly Cloudy,320,2014-03-18 09:15:00
5:35 AM,64.4,62.6,94,29.78,7.0,NW,26.5,34.5,N/A,,Mostly Cloudy,320,2014-03-18 09:35:00
5:55 AM,64.4,59.0,83,29.79,7.0,NW,20.7,31.1,N/A,,Mostly Cloudy,320,2014-03-18 09:55:00
6:15 AM,64.4,59.0,83,29.80,8.0,NW,19.6,27.6,N/A,,Overcast,320,2014-03-18 10:15:00
6:35 AM,64.4,59.0,83,29.81,9.0,NW,15.0,25.3,N/A,,Mostly Cloudy,320,2014-03-18 10:35:00
6:55 AM,62.6,59.0,88,29.81,9.0,NNW,13.8,20.7,N/A,,Scattered Clouds,330,2014-03-18 10:55:00
7:15 AM,64.4,57.2,77,29.83,10.0,NW,15.0,24.2,N/A,,Scattered Clouds,320,2014-03-18 11:15:00
7:35 AM,64.4,57.2,77,29.85,10.0,NNW,15.0,23.0,N/A,,Mostly Cloudy,330,2014-03-18 11:35:00
7:55 AM,64.4,57.2,77,29.86,9.0,NW,11.5,21.9,N/A,,Overcast,320,2014-03-18 11:55:00
8:15 AM,64.4,59.0,83,29.88,9.0,NW,15.0,23.0,N/A,,Overcast,320,2014-03-18 12:15:00
8:35 AM,64.4,57.2,77,29.89,9.0,NNW,17.3,25.3,N/A,,Overcast,330,2014-03-18 12:35:00
8:55 AM,64.4,57.2,77,29.89,8.0,NNW,13.8,23.0,N/A,,Mostly Cloudy,330,2014-03-18 12:55:00
9:15 AM,64.4,57.2,77,29.91,8.0,NNW,17.3,24.2,N/A,,Scattered Clouds,330,2014-03-18 13:15:00
9:35 AM,66.2,57.2,73,29.92,8.0,NNW,16.1,20.7,N/A,,Scattered Clouds,330,2014-03-18 13:35:00
9:55 AM,66.2,57.2,73,29.93,9.0,NNW,11.5,24.2,N/A,,Mostly Cloudy,340,2014-03-18 13:55:00
10:15 AM,66.2,57.2,73,29.94,10.0,NNW,12.7,23.0,N/A,,Partly Cloudy,330,2014-03-18 14:15:00
10:35 AM,66.2,57.2,73,29.95,10.0,NNW,16.1,20.7,N/A,,Clear,340,2014-03-18 14:35:00
10:55 AM,68.0,55.4,64,29.96,10.0,NNW,10.4,16.1,N/A,,Clear,340,2014-03-18 14:55:00
11:15 AM,68.0,53.6,60,29.96,10.0,North,11.5,18.4,N/A,,Clear,350,2014-03-18 15:15:00
11:35 AM,68.0,53.6,60,29.97,10.0,North,10.4,16.1,N/A,,Clear,350,2014-03-18 15:35:00
11:55 AM,68.0,53.6,60,29.97,10.0,NNW,11.5,20.7,N/A,,Clear,330,2014-03-18 15:55:00
12:15 PM,68.0,51.8,56,29.97,10.0,North,15.0,21.9,N/A,,Clear,350,2014-03-18 16:15:00
12:35 PM,69.8,53.6,56,29.97,10.0,NNW,10.4,19.6,N/A,,Clear,330,2014-03-18 16:35:00
12:55 PM,69.8,51.8,53,29.97,10.0,NW,15.0,18.4,N/A,,Clear,320,2014-03-18 16:55:00
1:15 PM,69.8,51.8,53,29.97,10.0,NW,13.8,19.6,N/A,,Clear,310,2014-03-18 17:15:00
1:35 PM,68.0,53.6,60,29.97,10.0,NW,13.8,19.6,N/A,,Clear,320,2014-03-18 17:35:00
1:55 PM,69.8,53.6,56,29.97,10.0,NW,12.7,17.3,N/A,,Clear,310,2014-03-18 17:55:00
2:15 PM,68.0,55.4,64,29.96,10.0,NW,15.0,-,N/A,,Clear,310,2014-03-18 18:15:00
2:35 PM,68.0,55.4,64,29.96,9.0,NW,15.0,21.9,N/A,,Clear,320,2014-03-18 18:35:00
2:55 PM,68.0,53.6,60,29.96,10.0,NW,15.0,19.6,N/A,,Clear,310,2014-03-18 18:55:00
3:15 PM,69.8,55.4,60,29.96,8.0,NW,16.1,-,N/A,,Clear,310,2014-03-18 19:15:00
3:35 PM,68.0,53.6,60,29.96,10.0,NW,13.8,-,N/A,,Clear,310,2014-03-18 19:35:00
3:55 PM,68.0,55.4,64,29.96,10.0,NW,11.5,18.4,N/A,,Clear,320,2014-03-18 19:55:00
4:15 PM,68.0,53.6,60,29.96,10.0,NW,12.7,19.6,N/A,,Clear,320,2014-03-18 20:15:00
4:35 PM,69.8,55.4,60,29.96,10.0,NW,11.5,-,N/A,,Clear,320,2014-03-18 20:35:00
4:55 PM,69.8,55.4,60,29.96,10.0,WNW,11.5,-,N/A,,Clear,300,2014-03-18 20:55:00
5:15 PM,68.0,53.6,60,29.96,10.0,WNW,8.1,-,N/A,,Clear,290,2014-03-18 21:15:00
5:35 PM,68.0,55.4,64,29.97,10.0,NW,9.2,-,N/A,,Clear,310,2014-03-18 21:35:00
5:55 PM,68.0,53.6,60,29.97,10.0,WNW,9.2,-,N/A,,Clear,300,2014-03-18 21:55:00
6:15 PM,68.0,53.6,60,29.97,10.0,WNW,9.2,-,N/A,,Clear,300,2014-03-18 22:15:00
6:35 PM,68.0,53.6,60,29.98,10.0,WNW,8.1,-,N/A,,Clear,300,2014-03-18 22:35:00
6:55 PM,66.2,53.6,64,29.98,10.0,NW,6.9,-,N/A,,Clear,320,2014-03-18 22:55:00
7:15 PM,66.2,53.6,64,29.98,10.0,NW,6.9,-,N/A,,Clear,320,2014-03-18 23:15:00
7:35 PM,66.2,55.4,68,29.99,10.0,NNW,5.8,-,N/A,,Clear,340,2014-03-18 23:35:00
7:55 PM,64.4,55.4,73,29.99,10.0,NNW,6.9,-,N/A,,Clear,330,2014-03-18 23:55:00
8:15 PM,64.4,55.4,73,29.99,10.0,NNW,6.9,-,N/A,,Clear,330,2014-03-19 00:15:00
8:35 PM,64.4,55.4,73,30.00,10.0,NNW,6.9,-,N/A,,Clear,330,2014-03-19 00:35:00
8:55 PM,64.4,55.4,73,30.01,9.0,NNW,5.8,-,N/A,,Clear,340,2014-03-19 00:55:00
9:15 PM,64.4,55.4,73,30.03,10.0,North,4.6,-,N/A,,Clear,350,2014-03-19 01:15:00
9:35 PM,64.4,55.4,73,30.03,10.0,North,3.5,-,N/A,,Clear,350,2014-03-19 01:35:00
9:55 PM,64.4,53.6,68,30.04,10.0,North,4.6,-,N/A,,Clear,360,2014-03-19 01:55:00
10:15 PM,62.6,53.6,72,30.04,10.0,North,4.6,-,N/A,,Clear,360,2014-03-19 02:15:00
10:35 PM,62.6,51.8,68,30.04,10.0,North,5.8,-,N/A,,Clear,10,2014-03-19 02:35:00
10:55 PM,60.8,51.8,72,30.05,10.0,North,5.8,-,N/A,,Clear,360,2014-03-19 02:55:00
11:15 PM,62.6,51.8,68,30.05,10.0,North,4.6,-,N/A,,Clear,360,2014-03-19 03:15:00
11:35 PM,62.6,51.8,68,30.06,10.0,North,5.8,-,N/A,,Clear,10,2014-03-19 03:35:00
11:55 PM,60.8,50.0,68,30.06,10.0,North,5.8,-,N/A,,Clear,10,2014-03-19 03:55:00